sensor_id;sensor_type;location;lat;lon;timestamp;P1;durP1;ratioP1;P2;durP2;ratioP2
13208;SDS011;6669;42.678;23.332;2024-03-02T00:01:57;15.57;;;12.93;;
13208;SDS011;6669;42.678;23.332;2024-03-02T00:04:26;14.70;;;13.10;;
13208;SDS011;6669;42.678;23.332;2024-03-02T00:06:54;14.67;;;13.17;;
13208;SDS011;6669;42.678;23.332;2024-03-02T00:09:23;14.60;;;13.10;;
13208;SDS011;6669;42.678;23.332;2024-03-02T00:11:52;14.57;;;13.00;;
13208;SDS011;6669;42.678;23.332;2024-03-02T00:14:20;16.33;;;12.90;;
13208;SDS011;6669;42.678;23.332;2024-03-02T00:16:50;14.93;;;12.40;;
13208;SDS011;6669;42.678;23.332;2024-03-02T00:19:19;14.87;;;13.27;;
13208;SDS011;6669;42.678;23.332;2024-03-02T00:21:49;16.23;;;12.70;;
13208;SDS011;6669;42.678;23.332;2024-03-02T00:24:18;13.60;;;12.20;;
13208;SDS011;6669;42.678;23.332;2024-03-02T00:26:49;15.87;;;12.73;;
13208;SDS011;6669;42.678;23.332;2024-03-02T00:29:17;14.70;;;12.43;;
13208;SDS011;6669;42.678;23.332;2024-03-02T00:31:47;15.43;;;12.47;;
13208;SDS011;6669;42.678;23.332;2024-03-02T00:34:15;14.40;;;12.90;;
13208;SDS011;6669;42.678;23.332;2024-03-02T00:36:45;16.30;;;12.90;;
13208;SDS011;6669;42.678;23.332;2024-03-02T00:39:16;16.07;;;12.47;;
13208;SDS011;6669;42.678;23.332;2024-03-02T00:41:45;14.37;;;12.10;;
13208;SDS011;6669;42.678;23.332;2024-03-02T00:44:14;14.93;;;12.70;;
13208;SDS011;6669;42.678;23.332;2024-03-02T00:46:43;13.10;;;11.70;;
13208;SDS011;6669;42.678;23.332;2024-03-02T00:49:12;14.77;;;11.43;;
13208;SDS011;6669;42.678;23.332;2024-03-02T00:51:48;13.40;;;11.63;;
13208;SDS011;6669;42.678;23.332;2024-03-02T00:54:20;13.77;;;11.20;;
13208;SDS011;6669;42.678;23.332;2024-03-02T00:56:50;12.97;;;11.17;;
13208;SDS011;6669;42.678;23.332;2024-03-02T00:59:19;15.63;;;10.83;;
13208;SDS011;6669;42.678;23.332;2024-03-02T01:01:47;12.80;;;10.87;;
13208;SDS011;6669;42.678;23.332;2024-03-02T01:04:16;13.43;;;11.90;;
13208;SDS011;6669;42.678;23.332;2024-03-02T01:06:44;12.30;;;10.97;;
13208;SDS011;6669;42.678;23.332;2024-03-02T01:09:12;12.97;;;11.60;;
13208;SDS011;6669;42.678;23.332;2024-03-02T01:11:42;13.50;;;10.67;;
13208;SDS011;6669;42.678;23.332;2024-03-02T01:14:11;14.63;;;10.77;;
13208;SDS011;6669;42.678;23.332;2024-03-02T01:16:39;12.37;;;10.30;;
13208;SDS011;6669;42.678;23.332;2024-03-02T01:19:07;12.67;;;10.33;;
13208;SDS011;6669;42.678;23.332;2024-03-02T01:21:36;11.50;;;9.30;;
13208;SDS011;6669;42.678;23.332;2024-03-02T01:24:04;11.77;;;9.80;;
13208;SDS011;6669;42.678;23.332;2024-03-02T01:26:33;11.53;;;10.23;;
13208;SDS011;6669;42.678;23.332;2024-03-02T01:29:02;12.63;;;10.83;;
13208;SDS011;6669;42.678;23.332;2024-03-02T01:31:30;12.47;;;11.07;;
13208;SDS011;6669;42.678;23.332;2024-03-02T01:33:59;14.20;;;11.17;;
13208;SDS011;6669;42.678;23.332;2024-03-02T01:36:27;13.47;;;10.37;;
13208;SDS011;6669;42.678;23.332;2024-03-02T01:38:55;13.47;;;10.67;;
13208;SDS011;6669;42.678;23.332;2024-03-02T01:41:24;12.17;;;10.17;;
13208;SDS011;6669;42.678;23.332;2024-03-02T01:43:52;14.73;;;11.23;;
13208;SDS011;6669;42.678;23.332;2024-03-02T01:46:22;12.77;;;11.33;;
13208;SDS011;6669;42.678;23.332;2024-03-02T01:48:50;14.30;;;11.40;;
13208;SDS011;6669;42.678;23.332;2024-03-02T01:51:19;12.43;;;10.80;;
13208;SDS011;6669;42.678;23.332;2024-03-02T01:53:47;12.80;;;11.17;;
13208;SDS011;6669;42.678;23.332;2024-03-02T01:56:16;12.87;;;11.30;;
13208;SDS011;6669;42.678;23.332;2024-03-02T01:58:44;14.07;;;12.07;;
13208;SDS011;6669;42.678;23.332;2024-03-02T02:01:12;15.60;;;12.10;;
13208;SDS011;6669;42.678;23.332;2024-03-02T02:03:42;15.67;;;11.77;;
13208;SDS011;6669;42.678;23.332;2024-03-02T02:06:11;15.97;;;12.00;;
13208;SDS011;6669;42.678;23.332;2024-03-02T02:08:39;15.50;;;12.57;;
13208;SDS011;6669;42.678;23.332;2024-03-02T02:11:08;14.60;;;12.80;;
13208;SDS011;6669;42.678;23.332;2024-03-02T02:13:36;14.83;;;12.03;;
13208;SDS011;6669;42.678;23.332;2024-03-02T02:16:05;14.53;;;12.87;;
13208;SDS011;6669;42.678;23.332;2024-03-02T02:18:33;17.97;;;13.93;;
13208;SDS011;6669;42.678;23.332;2024-03-02T02:21:04;14.93;;;13.20;;
13208;SDS011;6669;42.678;23.332;2024-03-02T02:23:33;16.50;;;14.37;;
13208;SDS011;6669;42.678;23.332;2024-03-02T02:26:02;18.73;;;13.87;;
13208;SDS011;6669;42.678;23.332;2024-03-02T02:28:30;15.47;;;13.20;;
13208;SDS011;6669;42.678;23.332;2024-03-02T02:30:58;17.10;;;14.10;;
13208;SDS011;6669;42.678;23.332;2024-03-02T02:33:27;18.57;;;14.77;;
13208;SDS011;6669;42.678;23.332;2024-03-02T02:35:56;14.87;;;13.23;;
13208;SDS011;6669;42.678;23.332;2024-03-02T02:38:24;15.50;;;12.90;;
13208;SDS011;6669;42.678;23.332;2024-03-02T02:40:54;16.50;;;14.07;;
13208;SDS011;6669;42.678;23.332;2024-03-02T02:43:21;15.67;;;13.83;;
13208;SDS011;6669;42.678;23.332;2024-03-02T02:45:49;17.63;;;14.20;;
13208;SDS011;6669;42.678;23.332;2024-03-02T02:48:17;15.67;;;13.80;;
13208;SDS011;6669;42.678;23.332;2024-03-02T02:50:45;17.97;;;14.73;;
13208;SDS011;6669;42.678;23.332;2024-03-02T02:53:13;15.03;;;13.37;;
13208;SDS011;6669;42.678;23.332;2024-03-02T02:55:42;18.90;;;14.40;;
13208;SDS011;6669;42.678;23.332;2024-03-02T02:58:12;14.27;;;12.00;;
13208;SDS011;6669;42.678;23.332;2024-03-02T03:00:42;25.10;;;19.60;;
13208;SDS011;6669;42.678;23.332;2024-03-02T03:03:10;16.20;;;13.63;;
13208;SDS011;6669;42.678;23.332;2024-03-02T03:05:39;18.20;;;14.13;;
13208;SDS011;6669;42.678;23.332;2024-03-02T03:08:07;19.53;;;14.60;;
13208;SDS011;6669;42.678;23.332;2024-03-02T03:10:35;18.20;;;14.37;;
13208;SDS011;6669;42.678;23.332;2024-03-02T03:13:03;15.67;;;13.93;;
13208;SDS011;6669;42.678;23.332;2024-03-02T03:15:36;15.87;;;13.33;;
13208;SDS011;6669;42.678;23.332;2024-03-02T03:18:04;17.03;;;13.60;;
13208;SDS011;6669;42.678;23.332;2024-03-02T03:20:34;16.50;;;13.97;;
13208;SDS011;6669;42.678;23.332;2024-03-02T03:23:02;15.43;;;13.83;;
13208;SDS011;6669;42.678;23.332;2024-03-02T03:25:31;17.27;;;14.33;;
13208;SDS011;6669;42.678;23.332;2024-03-02T03:27:59;16.63;;;13.33;;
13208;SDS011;6669;42.678;23.332;2024-03-02T03:30:29;17.90;;;14.80;;
13208;SDS011;6669;42.678;23.332;2024-03-02T03:32:59;18.10;;;15.23;;
13208;SDS011;6669;42.678;23.332;2024-03-02T03:35:27;18.97;;;15.27;;
13208;SDS011;6669;42.678;23.332;2024-03-02T03:37:55;16.90;;;14.00;;
13208;SDS011;6669;42.678;23.332;2024-03-02T03:40:24;16.23;;;14.03;;
13208;SDS011;6669;42.678;23.332;2024-03-02T03:42:52;19.13;;;14.33;;
13208;SDS011;6669;42.678;23.332;2024-03-02T03:45:22;18.57;;;15.07;;
13208;SDS011;6669;42.678;23.332;2024-03-02T03:47:53;17.33;;;14.73;;
13208;SDS011;6669;42.678;23.332;2024-03-02T03:50:22;18.70;;;15.20;;
13208;SDS011;6669;42.678;23.332;2024-03-02T03:52:50;16.27;;;14.47;;
13208;SDS011;6669;42.678;23.332;2024-03-02T03:55:19;17.50;;;14.63;;
13208;SDS011;6669;42.678;23.332;2024-03-02T03:57:47;17.60;;;14.43;;
13208;SDS011;6669;42.678;23.332;2024-03-02T04:00:15;18.10;;;14.83;;
13208;SDS011;6669;42.678;23.332;2024-03-02T04:02:44;16.97;;;14.20;;
13208;SDS011;6669;42.678;23.332;2024-03-02T04:05:12;18.60;;;15.27;;
13208;SDS011;6669;42.678;23.332;2024-03-02T04:07:42;23.20;;;14.97;;
13208;SDS011;6669;42.678;23.332;2024-03-02T04:10:10;16.27;;;14.00;;
13208;SDS011;6669;42.678;23.332;2024-03-02T04:12:39;18.47;;;14.80;;
13208;SDS011;6669;42.678;23.332;2024-03-02T04:15:07;17.50;;;14.73;;
13208;SDS011;6669;42.678;23.332;2024-03-02T04:17:36;18.03;;;14.07;;
13208;SDS011;6669;42.678;23.332;2024-03-02T04:20:04;20.27;;;14.77;;
13208;SDS011;6669;42.678;23.332;2024-03-02T04:22:33;20.30;;;15.67;;
13208;SDS011;6669;42.678;23.332;2024-03-02T04:25:04;18.33;;;15.73;;
13208;SDS011;6669;42.678;23.332;2024-03-02T04:27:34;19.93;;;16.03;;
13208;SDS011;6669;42.678;23.332;2024-03-02T04:30:03;19.47;;;15.53;;
13208;SDS011;6669;42.678;23.332;2024-03-02T04:32:33;17.63;;;15.73;;
13208;SDS011;6669;42.678;23.332;2024-03-02T04:35:03;18.00;;;15.17;;
13208;SDS011;6669;42.678;23.332;2024-03-02T04:37:33;16.80;;;14.47;;
13208;SDS011;6669;42.678;23.332;2024-03-02T04:40:04;16.50;;;13.53;;
13208;SDS011;6669;42.678;23.332;2024-03-02T04:42:34;17.63;;;15.27;;
13208;SDS011;6669;42.678;23.332;2024-03-02T04:45:03;18.40;;;14.83;;
13208;SDS011;6669;42.678;23.332;2024-03-02T04:47:32;19.30;;;15.83;;
13208;SDS011;6669;42.678;23.332;2024-03-02T04:50:00;18.37;;;14.70;;
13208;SDS011;6669;42.678;23.332;2024-03-02T04:52:28;20.83;;;16.20;;
13208;SDS011;6669;42.678;23.332;2024-03-02T04:54:56;20.47;;;16.93;;
13208;SDS011;6669;42.678;23.332;2024-03-02T04:57:43;18.27;;;15.70;;
13208;SDS011;6669;42.678;23.332;2024-03-02T05:00:13;21.13;;;17.00;;
13208;SDS011;6669;42.678;23.332;2024-03-02T05:02:41;19.50;;;16.90;;
13208;SDS011;6669;42.678;23.332;2024-03-02T05:05:10;20.23;;;16.57;;
13208;SDS011;6669;42.678;23.332;2024-03-02T05:07:38;22.40;;;17.03;;
13208;SDS011;6669;42.678;23.332;2024-03-02T05:10:08;19.73;;;16.33;;
13208;SDS011;6669;42.678;23.332;2024-03-02T05:12:38;20.77;;;16.63;;
13208;SDS011;6669;42.678;23.332;2024-03-02T05:15:25;19.63;;;16.87;;
13208;SDS011;6669;42.678;23.332;2024-03-02T05:17:53;22.33;;;16.67;;
13208;SDS011;6669;42.678;23.332;2024-03-02T05:20:23;21.70;;;17.03;;
13208;SDS011;6669;42.678;23.332;2024-03-02T05:22:51;22.90;;;16.43;;
13208;SDS011;6669;42.678;23.332;2024-03-02T05:25:20;20.60;;;16.37;;
13208;SDS011;6669;42.678;23.332;2024-03-02T05:27:48;21.37;;;16.70;;
13208;SDS011;6669;42.678;23.332;2024-03-02T05:30:16;25.13;;;17.93;;
13208;SDS011;6669;42.678;23.332;2024-03-02T05:32:46;21.53;;;16.73;;
13208;SDS011;6669;42.678;23.332;2024-03-02T05:35:14;21.97;;;18.13;;
13208;SDS011;6669;42.678;23.332;2024-03-02T05:37:42;22.13;;;17.83;;
13208;SDS011;6669;42.678;23.332;2024-03-02T05:40:11;23.43;;;17.47;;
13208;SDS011;6669;42.678;23.332;2024-03-02T05:42:39;22.17;;;18.03;;
13208;SDS011;6669;42.678;23.332;2024-03-02T05:45:08;23.90;;;18.97;;
13208;SDS011;6669;42.678;23.332;2024-03-02T05:47:37;22.93;;;18.23;;
13208;SDS011;6669;42.678;23.332;2024-03-02T05:50:08;24.07;;;17.67;;
13208;SDS011;6669;42.678;23.332;2024-03-02T05:52:36;21.17;;;18.07;;
13208;SDS011;6669;42.678;23.332;2024-03-02T05:55:05;22.77;;;17.70;;
13208;SDS011;6669;42.678;23.332;2024-03-02T05:57:34;24.63;;;18.40;;
13208;SDS011;6669;42.678;23.332;2024-03-02T06:00:22;24.77;;;17.57;;
13208;SDS011;6669;42.678;23.332;2024-03-02T06:02:50;26.77;;;18.87;;
13208;SDS011;6669;42.678;23.332;2024-03-02T06:05:20;21.17;;;16.77;;
13208;SDS011;6669;42.678;23.332;2024-03-02T06:07:48;25.67;;;17.97;;
13208;SDS011;6669;42.678;23.332;2024-03-02T06:10:17;21.23;;;17.40;;
13208;SDS011;6669;42.678;23.332;2024-03-02T06:12:45;24.07;;;17.40;;
13208;SDS011;6669;42.678;23.332;2024-03-02T06:15:13;24.33;;;17.30;;
13208;SDS011;6669;42.678;23.332;2024-03-02T06:17:42;22.40;;;17.47;;
13208;SDS011;6669;42.678;23.332;2024-03-02T06:20:10;21.60;;;16.47;;
13208;SDS011;6669;42.678;23.332;2024-03-02T06:22:40;22.10;;;17.40;;
13208;SDS011;6669;42.678;23.332;2024-03-02T06:25:08;23.07;;;16.37;;
13208;SDS011;6669;42.678;23.332;2024-03-02T06:27:37;19.90;;;16.10;;
13208;SDS011;6669;42.678;23.332;2024-03-02T06:30:05;20.70;;;16.27;;
13208;SDS011;6669;42.678;23.332;2024-03-02T06:32:35;23.53;;;16.80;;
13208;SDS011;6669;42.678;23.332;2024-03-02T06:35:04;22.20;;;16.67;;
13208;SDS011;6669;42.678;23.332;2024-03-02T06:37:36;25.13;;;16.60;;
13208;SDS011;6669;42.678;23.332;2024-03-02T06:40:08;23.07;;;17.53;;
13208;SDS011;6669;42.678;23.332;2024-03-02T06:42:37;22.90;;;16.57;;
13208;SDS011;6669;42.678;23.332;2024-03-02T06:45:06;23.20;;;17.30;;
13208;SDS011;6669;42.678;23.332;2024-03-02T06:47:34;20.53;;;16.07;;
13208;SDS011;6669;42.678;23.332;2024-03-02T06:50:03;19.67;;;16.67;;
13208;SDS011;6669;42.678;23.332;2024-03-02T06:52:31;24.30;;;17.03;;
13208;SDS011;6669;42.678;23.332;2024-03-02T06:55:00;20.73;;;15.23;;
13208;SDS011;6669;42.678;23.332;2024-03-02T06:57:30;19.93;;;15.50;;
13208;SDS011;6669;42.678;23.332;2024-03-02T06:59:58;21.07;;;16.30;;
13208;SDS011;6669;42.678;23.332;2024-03-02T07:02:26;19.10;;;15.40;;
13208;SDS011;6669;42.678;23.332;2024-03-02T07:04:55;20.37;;;15.50;;
13208;SDS011;6669;42.678;23.332;2024-03-02T07:07:23;21.90;;;16.13;;
13208;SDS011;6669;42.678;23.332;2024-03-02T07:09:52;20.07;;;16.17;;
13208;SDS011;6669;42.678;23.332;2024-03-02T07:12:20;21.10;;;16.37;;
13208;SDS011;6669;42.678;23.332;2024-03-02T07:14:50;20.63;;;16.30;;
13208;SDS011;6669;42.678;23.332;2024-03-02T07:17:34;20.00;;;16.33;;
13208;SDS011;6669;42.678;23.332;2024-03-02T07:20:04;20.37;;;15.73;;
13208;SDS011;6669;42.678;23.332;2024-03-02T07:22:34;21.93;;;16.80;;
13208;SDS011;6669;42.678;23.332;2024-03-02T07:25:08;23.17;;;15.90;;
13208;SDS011;6669;42.678;23.332;2024-03-02T07:27:56;21.07;;;15.93;;
13208;SDS011;6669;42.678;23.332;2024-03-02T07:30:26;24.43;;;16.40;;
13208;SDS011;6669;42.678;23.332;2024-03-02T07:32:57;21.03;;;15.97;;
13208;SDS011;6669;42.678;23.332;2024-03-02T07:35:26;22.07;;;16.97;;
13208;SDS011;6669;42.678;23.332;2024-03-02T07:37:58;22.83;;;16.47;;
13208;SDS011;6669;42.678;23.332;2024-03-02T07:40:26;24.23;;;16.67;;
13208;SDS011;6669;42.678;23.332;2024-03-02T07:42:55;25.27;;;17.47;;
13208;SDS011;6669;42.678;23.332;2024-03-02T07:45:23;23.93;;;16.33;;
13208;SDS011;6669;42.678;23.332;2024-03-02T07:47:53;23.33;;;16.50;;
13208;SDS011;6669;42.678;23.332;2024-03-02T07:50:21;19.93;;;15.80;;
13208;SDS011;6669;42.678;23.332;2024-03-02T07:52:49;21.17;;;16.00;;
13208;SDS011;6669;42.678;23.332;2024-03-02T07:55:18;21.73;;;17.83;;
13208;SDS011;6669;42.678;23.332;2024-03-02T07:57:46;22.53;;;17.97;;
13208;SDS011;6669;42.678;23.332;2024-03-02T08:00:16;20.03;;;14.60;;
13208;SDS011;6669;42.678;23.332;2024-03-02T08:02:44;21.17;;;15.07;;
13208;SDS011;6669;42.678;23.332;2024-03-02T08:05:14;20.43;;;15.37;;
13208;SDS011;6669;42.678;23.332;2024-03-02T08:07:43;22.03;;;16.03;;
13208;SDS011;6669;42.678;23.332;2024-03-02T08:10:12;26.37;;;19.70;;
13208;SDS011;6669;42.678;23.332;2024-03-02T08:12:40;37.73;;;27.67;;
13208;SDS011;6669;42.678;23.332;2024-03-02T08:15:09;20.10;;;15.47;;
13208;SDS011;6669;42.678;23.332;2024-03-02T08:17:39;20.37;;;14.17;;
13208;SDS011;6669;42.678;23.332;2024-03-02T08:20:11;20.57;;;15.60;;
13208;SDS011;6669;42.678;23.332;2024-03-02T08:22:41;21.77;;;14.87;;
13208;SDS011;6669;42.678;23.332;2024-03-02T08:25:10;20.63;;;14.50;;
13208;SDS011;6669;42.678;23.332;2024-03-02T08:27:39;19.47;;;15.17;;
13208;SDS011;6669;42.678;23.332;2024-03-02T08:30:08;19.37;;;14.60;;
13208;SDS011;6669;42.678;23.332;2024-03-02T08:32:37;18.20;;;14.57;;
13208;SDS011;6669;42.678;23.332;2024-03-02T08:35:07;18.23;;;13.67;;
13208;SDS011;6669;42.678;23.332;2024-03-02T08:37:36;17.63;;;14.13;;
13208;SDS011;6669;42.678;23.332;2024-03-02T08:40:10;20.73;;;16.13;;
13208;SDS011;6669;42.678;23.332;2024-03-02T08:42:44;20.70;;;14.97;;
13208;SDS011;6669;42.678;23.332;2024-03-02T08:45:13;20.50;;;14.47;;
13208;SDS011;6669;42.678;23.332;2024-03-02T08:47:42;19.10;;;14.20;;
13208;SDS011;6669;42.678;23.332;2024-03-02T08:50:10;16.03;;;13.53;;
13208;SDS011;6669;42.678;23.332;2024-03-02T08:52:43;18.37;;;14.60;;
13208;SDS011;6669;42.678;23.332;2024-03-02T08:55:13;19.27;;;14.57;;
13208;SDS011;6669;42.678;23.332;2024-03-02T08:57:41;23.00;;;14.83;;
13208;SDS011;6669;42.678;23.332;2024-03-02T09:00:10;19.40;;;15.13;;
13208;SDS011;6669;42.678;23.332;2024-03-02T09:02:40;20.80;;;16.10;;
13208;SDS011;6669;42.678;23.332;2024-03-02T09:05:09;20.67;;;14.88;;
13208;SDS011;6669;42.678;23.332;2024-03-02T09:07:38;18.15;;;14.63;;
13208;SDS011;6669;42.678;23.332;2024-03-02T09:10:07;18.20;;;14.90;;
13208;SDS011;6669;42.678;23.332;2024-03-02T09:12:37;18.15;;;15.25;;
13208;SDS011;6669;42.678;23.332;2024-03-02T09:15:06;17.58;;;14.55;;
13208;SDS011;6669;42.678;23.332;2024-03-02T09:17:35;18.10;;;14.32;;
13208;SDS011;6669;42.678;23.332;2024-03-02T09:20:04;19.77;;;14.95;;
13208;SDS011;6669;42.678;23.332;2024-03-02T09:22:33;18.10;;;15.10;;
13208;SDS011;6669;42.678;23.332;2024-03-02T09:25:01;22.55;;;15.65;;
13208;SDS011;6669;42.678;23.332;2024-03-02T09:27:30;17.95;;;14.32;;
13208;SDS011;6669;42.678;23.332;2024-03-02T09:30:00;20.70;;;14.38;;
13208;SDS011;6669;42.678;23.332;2024-03-02T09:32:28;19.63;;;14.98;;
13208;SDS011;6669;42.678;23.332;2024-03-02T09:34:57;19.90;;;16.70;;
13208;SDS011;6669;42.678;23.332;2024-03-02T09:37:26;18.27;;;15.32;;
13208;SDS011;6669;42.678;23.332;2024-03-02T09:39:55;17.50;;;13.52;;
13208;SDS011;6669;42.678;23.332;2024-03-02T09:42:23;24.27;;;17.33;;
13208;SDS011;6669;42.678;23.332;2024-03-02T09:44:52;21.60;;;16.03;;
13208;SDS011;6669;42.678;23.332;2024-03-02T09:47:22;19.23;;;14.57;;
13208;SDS011;6669;42.678;23.332;2024-03-02T09:49:50;17.33;;;14.38;;
13208;SDS011;6669;42.678;23.332;2024-03-02T09:52:18;18.97;;;14.13;;
13208;SDS011;6669;42.678;23.332;2024-03-02T09:54:47;17.83;;;14.00;;
13208;SDS011;6669;42.678;23.332;2024-03-02T09:57:16;17.07;;;14.03;;
13208;SDS011;6669;42.678;23.332;2024-03-02T09:59:44;19.03;;;14.40;;
13208;SDS011;6669;42.678;23.332;2024-03-02T10:02:13;17.90;;;14.32;;
13208;SDS011;6669;42.678;23.332;2024-03-02T10:04:42;17.60;;;14.10;;
13208;SDS011;6669;42.678;23.332;2024-03-02T10:07:12;16.90;;;13.73;;
13208;SDS011;6669;42.678;23.332;2024-03-02T10:09:41;17.45;;;13.85;;
13208;SDS011;6669;42.678;23.332;2024-03-02T10:12:12;19.20;;;14.20;;
13208;SDS011;6669;42.678;23.332;2024-03-02T10:14:41;20.77;;;15.10;;
13208;SDS011;6669;42.678;23.332;2024-03-02T10:17:11;19.50;;;16.27;;
13208;SDS011;6669;42.678;23.332;2024-03-02T10:19:40;25.13;;;18.50;;
13208;SDS011;6669;42.678;23.332;2024-03-02T10:22:09;18.85;;;14.82;;
13208;SDS011;6669;42.678;23.332;2024-03-02T10:24:38;19.80;;;15.23;;
13208;SDS011;6669;42.678;23.332;2024-03-02T10:27:08;19.00;;;15.60;;
13208;SDS011;6669;42.678;23.332;2024-03-02T10:29:38;20.53;;;15.40;;
13208;SDS011;6669;42.678;23.332;2024-03-02T10:32:10;16.77;;;14.82;;
13208;SDS011;6669;42.678;23.332;2024-03-02T10:34:39;20.92;;;16.60;;
13208;SDS011;6669;42.678;23.332;2024-03-02T10:37:10;21.70;;;16.55;;
13208;SDS011;6669;42.678;23.332;2024-03-02T10:39:39;18.80;;;16.07;;
13208;SDS011;6669;42.678;23.332;2024-03-02T10:42:08;18.33;;;15.10;;
13208;SDS011;6669;42.678;23.332;2024-03-02T10:44:37;20.00;;;15.75;;
13208;SDS011;6669;42.678;23.332;2024-03-02T10:47:06;17.83;;;14.97;;
13208;SDS011;6669;42.678;23.332;2024-03-02T10:49:34;17.63;;;14.63;;
13208;SDS011;6669;42.678;23.332;2024-03-02T10:52:04;21.23;;;14.80;;
13208;SDS011;6669;42.678;23.332;2024-03-02T10:54:34;18.13;;;14.63;;
13208;SDS011;6669;42.678;23.332;2024-03-02T10:57:07;21.33;;;16.23;;
13208;SDS011;6669;42.678;23.332;2024-03-02T10:59:37;17.77;;;15.07;;
13208;SDS011;6669;42.678;23.332;2024-03-02T11:02:15;18.30;;;14.87;;
13208;SDS011;6669;42.678;23.332;2024-03-02T11:04:45;24.27;;;15.87;;
13208;SDS011;6669;42.678;23.332;2024-03-02T11:07:17;16.77;;;13.53;;
13208;SDS011;6669;42.678;23.332;2024-03-02T11:09:52;18.45;;;14.75;;
13208;SDS011;6669;42.678;23.332;2024-03-02T11:12:27;16.73;;;14.20;;
13208;SDS011;6669;42.678;23.332;2024-03-02T11:14:57;18.70;;;15.10;;
13208;SDS011;6669;42.678;23.332;2024-03-02T11:17:26;18.43;;;14.33;;
13208;SDS011;6669;42.678;23.332;2024-03-02T11:19:55;19.67;;;14.10;;
13208;SDS011;6669;42.678;23.332;2024-03-02T11:22:24;16.20;;;14.23;;
13208;SDS011;6669;42.678;23.332;2024-03-02T11:24:54;19.35;;;14.32;;
13208;SDS011;6669;42.678;23.332;2024-03-02T11:33:23;16.63;;;13.30;;
13208;SDS011;6669;42.678;23.332;2024-03-02T11:35:56;15.87;;;13.23;;
13208;SDS011;6669;42.678;23.332;2024-03-02T11:38:28;16.70;;;13.37;;
13208;SDS011;6669;42.678;23.332;2024-03-02T11:41:02;14.30;;;11.82;;
13208;SDS011;6669;42.678;23.332;2024-03-02T11:43:33;15.77;;;12.27;;
13208;SDS011;6669;42.678;23.332;2024-03-02T11:46:06;15.80;;;13.20;;
13208;SDS011;6669;42.678;23.332;2024-03-02T11:48:35;15.60;;;12.90;;
13208;SDS011;6669;42.678;23.332;2024-03-02T11:51:04;18.53;;;16.37;;
13208;SDS011;6669;42.678;23.332;2024-03-02T11:53:33;32.30;;;26.83;;
13208;SDS011;6669;42.678;23.332;2024-03-02T11:56:05;18.07;;;14.37;;
13208;SDS011;6669;42.678;23.332;2024-03-02T11:58:35;16.33;;;13.33;;
13208;SDS011;6669;42.678;23.332;2024-03-02T12:01:04;15.40;;;12.70;;
13208;SDS011;6669;42.678;23.332;2024-03-02T12:03:33;14.17;;;12.30;;
13208;SDS011;6669;42.678;23.332;2024-03-02T12:06:03;15.13;;;13.50;;
13208;SDS011;6669;42.678;23.332;2024-03-02T12:08:32;15.10;;;13.33;;
13208;SDS011;6669;42.678;23.332;2024-03-02T12:11:01;15.27;;;13.50;;
13208;SDS011;6669;42.678;23.332;2024-03-02T12:13:32;16.63;;;13.43;;
13208;SDS011;6669;42.678;23.332;2024-03-02T12:16:00;17.95;;;13.43;;
13208;SDS011;6669;42.678;23.332;2024-03-02T12:18:29;16.67;;;14.13;;
13208;SDS011;6669;42.678;23.332;2024-03-02T12:20:57;16.63;;;14.27;;
13208;SDS011;6669;42.678;23.332;2024-03-02T12:23:28;17.00;;;13.95;;
13208;SDS011;6669;42.678;23.332;2024-03-02T12:25:57;18.17;;;13.90;;
13208;SDS011;6669;42.678;23.332;2024-03-02T12:28:25;15.30;;;13.20;;
13208;SDS011;6669;42.678;23.332;2024-03-02T12:30:55;14.93;;;12.50;;
13208;SDS011;6669;42.678;23.332;2024-03-02T12:33:24;16.30;;;12.70;;
13208;SDS011;6669;42.678;23.332;2024-03-02T12:35:54;14.00;;;11.87;;
13208;SDS011;6669;42.678;23.332;2024-03-02T12:38:22;14.35;;;11.63;;
13208;SDS011;6669;42.678;23.332;2024-03-02T12:40:52;15.35;;;12.38;;
13208;SDS011;6669;42.678;23.332;2024-03-02T12:43:21;18.03;;;12.57;;
13208;SDS011;6669;42.678;23.332;2024-03-02T12:45:50;13.05;;;11.57;;
13208;SDS011;6669;42.678;23.332;2024-03-02T12:48:20;14.77;;;13.13;;
13208;SDS011;6669;42.678;23.332;2024-03-02T12:50:49;25.02;;;22.30;;
13208;SDS011;6669;42.678;23.332;2024-03-02T12:53:17;20.73;;;18.55;;
13208;SDS011;6669;42.678;23.332;2024-03-02T12:55:45;14.63;;;12.02;;
13208;SDS011;6669;42.678;23.332;2024-03-02T12:58:17;12.93;;;11.52;;
13208;SDS011;6669;42.678;23.332;2024-03-02T13:00:46;13.40;;;12.00;;
13208;SDS011;6669;42.678;23.332;2024-03-02T13:03:15;13.80;;;11.57;;
13208;SDS011;6669;42.678;23.332;2024-03-02T13:05:51;14.23;;;11.57;;
13208;SDS011;6669;42.678;23.332;2024-03-02T13:08:20;12.98;;;11.68;;
13208;SDS011;6669;42.678;23.332;2024-03-02T13:10:49;13.65;;;12.05;;
13208;SDS011;6669;42.678;23.332;2024-03-02T13:13:17;12.88;;;11.30;;
13208;SDS011;6669;42.678;23.332;2024-03-02T13:15:46;15.63;;;12.10;;
13208;SDS011;6669;42.678;23.332;2024-03-02T13:18:14;14.85;;;13.25;;
13208;SDS011;6669;42.678;23.332;2024-03-02T13:20:45;13.38;;;11.98;;
13208;SDS011;6669;42.678;23.332;2024-03-02T13:23:15;13.23;;;11.65;;
13208;SDS011;6669;42.678;23.332;2024-03-02T13:25:43;15.48;;;12.75;;
13208;SDS011;6669;42.678;23.332;2024-03-02T13:28:13;14.13;;;12.18;;
13208;SDS011;6669;42.678;23.332;2024-03-02T13:30:42;13.93;;;11.82;;
13208;SDS011;6669;42.678;23.332;2024-03-02T13:33:10;13.15;;;11.35;;
13208;SDS011;6669;42.678;23.332;2024-03-02T13:35:39;13.38;;;11.38;;
13208;SDS011;6669;42.678;23.332;2024-03-02T13:38:07;13.52;;;11.38;;
13208;SDS011;6669;42.678;23.332;2024-03-02T13:40:37;13.43;;;12.03;;
13208;SDS011;6669;42.678;23.332;2024-03-02T13:43:06;13.63;;;11.63;;
13208;SDS011;6669;42.678;23.332;2024-03-02T13:45:35;12.43;;;11.20;;
13208;SDS011;6669;42.678;23.332;2024-03-02T13:48:03;12.73;;;11.43;;
13208;SDS011;6669;42.678;23.332;2024-03-02T13:50:32;13.20;;;11.57;;
13208;SDS011;6669;42.678;23.332;2024-03-02T13:53:01;12.27;;;11.07;;
13208;SDS011;6669;42.678;23.332;2024-03-02T13:55:29;14.93;;;12.67;;
13208;SDS011;6669;42.678;23.332;2024-03-02T13:57:59;14.20;;;11.63;;
13208;SDS011;6669;42.678;23.332;2024-03-02T14:00:28;13.37;;;11.97;;
13208;SDS011;6669;42.678;23.332;2024-03-02T14:02:57;14.03;;;11.70;;
13208;SDS011;6669;42.678;23.332;2024-03-02T14:05:25;15.73;;;12.47;;
13208;SDS011;6669;42.678;23.332;2024-03-02T14:07:53;14.77;;;12.03;;
13208;SDS011;6669;42.678;23.332;2024-03-02T14:10:21;13.40;;;11.57;;
13208;SDS011;6669;42.678;23.332;2024-03-02T14:12:50;14.17;;;12.43;;
13208;SDS011;6669;42.678;23.332;2024-03-02T14:15:20;14.60;;;11.90;;
13208;SDS011;6669;42.678;23.332;2024-03-02T14:17:48;13.47;;;11.57;;
13208;SDS011;6669;42.678;23.332;2024-03-02T14:20:16;13.50;;;11.80;;
13208;SDS011;6669;42.678;23.332;2024-03-02T14:22:48;13.87;;;11.90;;
13208;SDS011;6669;42.678;23.332;2024-03-02T14:25:17;14.87;;;12.30;;
13208;SDS011;6669;42.678;23.332;2024-03-02T14:27:45;13.93;;;11.67;;
13208;SDS011;6669;42.678;23.332;2024-03-02T14:30:35;14.03;;;12.03;;
13208;SDS011;6669;42.678;23.332;2024-03-02T14:33:04;13.70;;;11.70;;
13208;SDS011;6669;42.678;23.332;2024-03-02T14:35:32;13.50;;;12.10;;
13208;SDS011;6669;42.678;23.332;2024-03-02T14:38:01;14.73;;;12.77;;
13208;SDS011;6669;42.678;23.332;2024-03-02T14:40:29;13.50;;;11.85;;